Hartford, SD (57033)

4:47 AM CDT on October 20, 2014 (GMT -0500)
SW Crooks | Change Station
CLOSE
Current Station
Personal Weather Station
Location: Crooks, SD
Elevation: 1552 ft
Nearby Weather Stations

Elev 1552 ft 43.65 °N, 96.82 °W | Updated 27 seconds ago

Clear
Clear
38.7 °F
Feels Like 39 °F
N
0.0
Wind Variable Wind from NW
Gusts 0.0 mph

Today
High -- | Low -- °F
--% Chance of Precip.
Yesterday
High -- | Low -- °F
Precip. -- in
7:48 AM 6:36 PM
Waning Crescent, 12% visible
Pressure 30.03 in
Visibility 10.0 miles
Clouds Clear
Windchill 39 °F
Dew Point 37 °F
Humidity 93%
Rainfall 0.00 in
Snow Depth Not available.
UV 0 out of 12
Pollen 1.90 out of 12
Air Quality Not available.
Flu Activity Sporadic
METAR KFSD 200856Z AUTO 00000KT 10SM CLR 04/02 A3002 RMK AO2 SLP167 T00440022 51010

More Conditions Fewer Conditions

Pressure 30.03 in
Visibility 10.0 miles
Clouds Clear
Windchill 39 °F
Dew Point 37 °F
Humidity 93%
Rainfall 0.00 in
Snow Depth Not available.
UV 0 out of 12
Pollen 1.90 out of 12
Air Quality Not available.
Flu Activity Sporadic
METAR KFSD 200856Z AUTO 00000KT 10SM CLR 04/02 A3002 RMK AO2 SLP167 T00440022 51010

More Conditions Fewer Conditions

10-Day Weather Forecast

Almanac

Astronomy

Oct. 20, 2014 Rise Set
Actual Time 7:48 AM CDT 6:36 PM CDT
Civil Twilight 7:19 AM CDT 7:05 PM CDT
Nautical Twilight 6:45 AM CDT 7:38 PM CDT
Astronomical Twilight 6:12 AM CDT 8:11 PM CDT
Moon 4:31 AM CDT 5:04 PM CDT
Length of Visible Light 11h 46m
Length of Day
10h 48m
Waning Crescent, 12% of the Moon is Illuminated
Today
Waning Crescent
Oct 23
New
Oct 30
First Quarter
Nov 6
Full
Nov 14
Last Quarter

Today's Extremes

State Highs State Lows

Community

WunderPhotos

Upload Photos

1,763,325 photos uploaded!

Nearby

Snow Depth

Station Depth Elevation
Blind Park 0 in 6890 ft

Earthquake Activity

City Distance Mag. Time & Date
No recent earthquake activity has been reported nearby.
Minimum magnitude displayed is 2.5.

Coastal Water Temperatures

Place Temperature
No Stations Reporting

Nearby Weather Stations